sensor_id;sensor_type;location;lat;lon;timestamp;temperature;humidity
43995;DHT22;51687;52.160;5.298;2023-03-16T00:02:13;13.80;38.70
43995;DHT22;51687;52.160;5.298;2023-03-16T00:04:40;13.80;39.00
43995;DHT22;51687;52.160;5.298;2023-03-16T00:07:09;13.80;38.80
43995;DHT22;51687;52.160;5.298;2023-03-16T00:09:37;13.80;39.30
43995;DHT22;51687;52.160;5.298;2023-03-16T00:12:18;13.80;39.60
43995;DHT22;51687;52.160;5.298;2023-03-16T00:14:47;13.80;39.50
43995;DHT22;51687;52.160;5.298;2023-03-16T00:17:17;13.80;39.80
43995;DHT22;51687;52.160;5.298;2023-03-16T00:19:50;13.80;39.50
43995;DHT22;51687;52.160;5.298;2023-03-16T00:22:26;13.80;39.30
43995;DHT22;51687;52.160;5.298;2023-03-16T00:24:54;13.80;39.70
43995;DHT22;51687;52.160;5.298;2023-03-16T00:27:22;13.80;39.80
43995;DHT22;51687;52.160;5.298;2023-03-16T00:29:50;13.80;40.00
43995;DHT22;51687;52.160;5.298;2023-03-16T00:32:29;13.80;41.50
43995;DHT22;51687;52.160;5.298;2023-03-16T00:34:58;13.80;40.50
43995;DHT22;51687;52.160;5.298;2023-03-16T00:37:25;13.80;40.50
43995;DHT22;51687;52.160;5.298;2023-03-16T00:39:53;13.80;40.40
43995;DHT22;51687;52.160;5.298;2023-03-16T00:42:26;13.80;40.40
43995;DHT22;51687;52.160;5.298;2023-03-16T00:44:53;13.80;41.40
43995;DHT22;51687;52.160;5.298;2023-03-16T00:47:28;13.80;40.80
43995;DHT22;51687;52.160;5.298;2023-03-16T00:49:59;13.80;40.40
43995;DHT22;51687;52.160;5.298;2023-03-16T00:52:27;13.70;40.80
43995;DHT22;51687;52.160;5.298;2023-03-16T00:54:55;13.70;41.10
43995;DHT22;51687;52.160;5.298;2023-03-16T00:57:23;13.60;41.30
43995;DHT22;51687;52.160;5.298;2023-03-16T00:59:51;13.60;41.40
43995;DHT22;51687;52.160;5.298;2023-03-16T01:02:19;13.60;41.00
43995;DHT22;51687;52.160;5.298;2023-03-16T01:04:49;13.60;41.40
43995;DHT22;51687;52.160;5.298;2023-03-16T01:07:17;13.60;41.80
43995;DHT22;51687;52.160;5.298;2023-03-16T01:09:45;13.60;42.90
43995;DHT22;51687;52.160;5.298;2023-03-16T01:12:14;13.70;41.70
43995;DHT22;51687;52.160;5.298;2023-03-16T01:14:41;13.60;41.90
43995;DHT22;51687;52.160;5.298;2023-03-16T01:17:12;13.60;42.10
43995;DHT22;51687;52.160;5.298;2023-03-16T01:19:40;13.70;42.60
43995;DHT22;51687;52.160;5.298;2023-03-16T01:22:07;13.70;42.10
43995;DHT22;51687;52.160;5.298;2023-03-16T01:24:38;13.70;41.80
43995;DHT22;51687;52.160;5.298;2023-03-16T01:27:06;13.70;42.10
43995;DHT22;51687;52.160;5.298;2023-03-16T01:29:34;13.70;42.20
43995;DHT22;51687;52.160;5.298;2023-03-16T01:32:01;13.70;42.10
43995;DHT22;51687;52.160;5.298;2023-03-16T01:34:29;13.60;41.70
43995;DHT22;51687;52.160;5.298;2023-03-16T01:36:57;13.60;42.10
43995;DHT22;51687;52.160;5.298;2023-03-16T01:39:25;13.60;41.80
43995;DHT22;51687;52.160;5.298;2023-03-16T01:41:52;13.60;42.10
43995;DHT22;51687;52.160;5.298;2023-03-16T01:44:21;13.50;42.10
43995;DHT22;51687;52.160;5.298;2023-03-16T01:46:49;13.50;42.10
43995;DHT22;51687;52.160;5.298;2023-03-16T01:49:28;13.50;42.30
43995;DHT22;51687;52.160;5.298;2023-03-16T01:52:16;13.50;42.20
43995;DHT22;51687;52.160;5.298;2023-03-16T01:54:54;13.50;42.60
43995;DHT22;51687;52.160;5.298;2023-03-16T01:57:25;13.50;42.60
43995;DHT22;51687;52.160;5.298;2023-03-16T02:00:04;13.50;42.90
43995;DHT22;51687;52.160;5.298;2023-03-16T02:02:48;13.50;42.80
43995;DHT22;51687;52.160;5.298;2023-03-16T02:05:37;13.50;42.90
43995;DHT22;51687;52.160;5.298;2023-03-16T02:08:09;13.40;43.10
43995;DHT22;51687;52.160;5.298;2023-03-16T02:10:36;13.40;43.00
43995;DHT22;51687;52.160;5.298;2023-03-16T02:13:04;13.40;43.40
43995;DHT22;51687;52.160;5.298;2023-03-16T02:15:31;13.50;43.40
43995;DHT22;51687;52.160;5.298;2023-03-16T02:17:58;13.50;43.40
43995;DHT22;51687;52.160;5.298;2023-03-16T02:23:01;13.50;43.30
43995;DHT22;51687;52.160;5.298;2023-03-16T02:30:46;13.40;44.30
43995;DHT22;51687;52.160;5.298;2023-03-16T02:33:15;13.50;44.40
43995;DHT22;51687;52.160;5.298;2023-03-16T02:35:43;13.50;44.30
43995;DHT22;51687;52.160;5.298;2023-03-16T02:38:11;13.50;43.90
43995;DHT22;51687;52.160;5.298;2023-03-16T02:40:37;13.60;44.40
43995;DHT22;51687;52.160;5.298;2023-03-16T02:45:39;13.60;44.00
43995;DHT22;51687;52.160;5.298;2023-03-16T02:48:22;13.60;44.60
43995;DHT22;51687;52.160;5.298;2023-03-16T02:50:52;13.60;45.00
43995;DHT22;51687;52.160;5.298;2023-03-16T02:53:19;13.60;44.20
43995;DHT22;51687;52.160;5.298;2023-03-16T02:55:46;13.60;44.70
43995;DHT22;51687;52.160;5.298;2023-03-16T02:58:14;13.60;44.40
43995;DHT22;51687;52.160;5.298;2023-03-16T03:00:41;13.60;45.00
43995;DHT22;51687;52.160;5.298;2023-03-16T03:03:08;13.60;45.00
43995;DHT22;51687;52.160;5.298;2023-03-16T03:05:36;13.60;45.00
43995;DHT22;51687;52.160;5.298;2023-03-16T03:08:03;13.60;45.60
43995;DHT22;51687;52.160;5.298;2023-03-16T03:10:30;13.70;45.60
43995;DHT22;51687;52.160;5.298;2023-03-16T03:12:57;13.70;45.30
43995;DHT22;51687;52.160;5.298;2023-03-16T03:15:24;13.70;45.20
43995;DHT22;51687;52.160;5.298;2023-03-16T03:17:50;13.70;45.00
43995;DHT22;51687;52.160;5.298;2023-03-16T03:20:17;13.70;45.00
43995;DHT22;51687;52.160;5.298;2023-03-16T03:22:47;13.60;45.10
43995;DHT22;51687;52.160;5.298;2023-03-16T03:25:15;13.60;45.50
43995;DHT22;51687;52.160;5.298;2023-03-16T03:27:42;13.60;45.80
43995;DHT22;51687;52.160;5.298;2023-03-16T03:30:12;13.60;45.60
43995;DHT22;51687;52.160;5.298;2023-03-16T03:32:39;13.60;45.60
43995;DHT22;51687;52.160;5.298;2023-03-16T03:35:07;13.60;46.00
43995;DHT22;51687;52.160;5.298;2023-03-16T03:37:34;13.60;46.30
43995;DHT22;51687;52.160;5.298;2023-03-16T03:40:01;13.60;46.30
43995;DHT22;51687;52.160;5.298;2023-03-16T03:42:39;13.60;46.40
43995;DHT22;51687;52.160;5.298;2023-03-16T03:45:07;13.60;46.30
43995;DHT22;51687;52.160;5.298;2023-03-16T03:47:34;13.60;46.90
43995;DHT22;51687;52.160;5.298;2023-03-16T03:50:00;13.50;46.30
43995;DHT22;51687;52.160;5.298;2023-03-16T03:52:27;13.50;46.90
43995;DHT22;51687;52.160;5.298;2023-03-16T03:54:54;13.50;47.20
43995;DHT22;51687;52.160;5.298;2023-03-16T03:57:21;13.50;47.20
43995;DHT22;51687;52.160;5.298;2023-03-16T03:59:48;13.50;47.50
43995;DHT22;51687;52.160;5.298;2023-03-16T04:02:15;13.50;47.50
43995;DHT22;51687;52.160;5.298;2023-03-16T04:04:42;13.50;47.50
43995;DHT22;51687;52.160;5.298;2023-03-16T04:07:10;13.40;47.70
43995;DHT22;51687;52.160;5.298;2023-03-16T04:09:36;13.40;47.80
43995;DHT22;51687;52.160;5.298;2023-03-16T04:12:04;13.40;47.80
43995;DHT22;51687;52.160;5.298;2023-03-16T04:14:31;13.40;47.80
43995;DHT22;51687;52.160;5.298;2023-03-16T04:16:58;13.40;48.30
43995;DHT22;51687;52.160;5.298;2023-03-16T04:19:25;13.40;48.10
43995;DHT22;51687;52.160;5.298;2023-03-16T04:21:52;13.40;47.90
43995;DHT22;51687;52.160;5.298;2023-03-16T04:24:19;13.40;48.00
43995;DHT22;51687;52.160;5.298;2023-03-16T04:26:48;13.40;48.10
43995;DHT22;51687;52.160;5.298;2023-03-16T04:29:15;13.40;48.00
43995;DHT22;51687;52.160;5.298;2023-03-16T04:31:45;13.40;47.90
43995;DHT22;51687;52.160;5.298;2023-03-16T04:34:12;13.30;47.80
43995;DHT22;51687;52.160;5.298;2023-03-16T04:36:39;13.20;47.90
43995;DHT22;51687;52.160;5.298;2023-03-16T04:39:07;13.10;48.30
43995;DHT22;51687;52.160;5.298;2023-03-16T04:41:36;13.00;48.40
43995;DHT22;51687;52.160;5.298;2023-03-16T04:44:02;12.90;48.70
43995;DHT22;51687;52.160;5.298;2023-03-16T04:46:31;12.80;49.00
43995;DHT22;51687;52.160;5.298;2023-03-16T04:48:57;12.70;49.10
43995;DHT22;51687;52.160;5.298;2023-03-16T04:51:25;12.60;49.70
43995;DHT22;51687;52.160;5.298;2023-03-16T04:53:52;12.50;49.60
43995;DHT22;51687;52.160;5.298;2023-03-16T04:56:19;12.50;49.40
43995;DHT22;51687;52.160;5.298;2023-03-16T04:58:47;12.40;49.60
43995;DHT22;51687;52.160;5.298;2023-03-16T05:01:16;12.30;50.00
43995;DHT22;51687;52.160;5.298;2023-03-16T05:08:39;12.30;50.10
43995;DHT22;51687;52.160;5.298;2023-03-16T05:13:33;12.20;50.60
43995;DHT22;51687;52.160;5.298;2023-03-16T05:16:00;12.10;50.80
43995;DHT22;51687;52.160;5.298;2023-03-16T05:18:27;12.10;50.80
43995;DHT22;51687;52.160;5.298;2023-03-16T05:20:54;12.10;50.80
43995;DHT22;51687;52.160;5.298;2023-03-16T05:23:22;12.00;51.00
43995;DHT22;51687;52.160;5.298;2023-03-16T05:25:49;12.00;51.20
43995;DHT22;51687;52.160;5.298;2023-03-16T05:28:17;12.00;51.10
43995;DHT22;51687;52.160;5.298;2023-03-16T05:33:11;12.00;51.20
43995;DHT22;51687;52.160;5.298;2023-03-16T05:35:38;11.90;51.50
43995;DHT22;51687;52.160;5.298;2023-03-16T05:38:05;11.90;51.90
43995;DHT22;51687;52.160;5.298;2023-03-16T05:40:32;11.80;51.90
43995;DHT22;51687;52.160;5.298;2023-03-16T05:43:00;11.80;52.00
43995;DHT22;51687;52.160;5.298;2023-03-16T05:45:27;11.80;52.20
43995;DHT22;51687;52.160;5.298;2023-03-16T05:47:54;11.80;52.40
43995;DHT22;51687;52.160;5.298;2023-03-16T05:50:21;11.80;52.60
43995;DHT22;51687;52.160;5.298;2023-03-16T05:52:48;11.80;52.60
43995;DHT22;51687;52.160;5.298;2023-03-16T05:55:16;11.70;52.80
43995;DHT22;51687;52.160;5.298;2023-03-16T05:57:43;11.70;53.10
43995;DHT22;51687;52.160;5.298;2023-03-16T06:00:12;11.70;53.00
43995;DHT22;51687;52.160;5.298;2023-03-16T06:02:48;11.70;53.30
43995;DHT22;51687;52.160;5.298;2023-03-16T06:05:16;11.70;54.00
43995;DHT22;51687;52.160;5.298;2023-03-16T06:07:44;11.60;53.50
43995;DHT22;51687;52.160;5.298;2023-03-16T06:10:11;11.60;53.60
43995;DHT22;51687;52.160;5.298;2023-03-16T06:12:38;11.60;53.70
43995;DHT22;51687;52.160;5.298;2023-03-16T06:15:06;11.60;53.80
43995;DHT22;51687;52.160;5.298;2023-03-16T06:17:34;11.60;53.90
43995;DHT22;51687;52.160;5.298;2023-03-16T06:20:02;11.60;53.80
43995;DHT22;51687;52.160;5.298;2023-03-16T06:22:31;11.60;54.20
43995;DHT22;51687;52.160;5.298;2023-03-16T06:24:57;11.60;53.90
43995;DHT22;51687;52.160;5.298;2023-03-16T06:27:24;11.70;53.70
43995;DHT22;51687;52.160;5.298;2023-03-16T06:29:52;11.70;54.00
43995;DHT22;51687;52.160;5.298;2023-03-16T06:32:18;11.80;53.60
43995;DHT22;51687;52.160;5.298;2023-03-16T06:34:45;11.90;54.80
43995;DHT22;51687;52.160;5.298;2023-03-16T06:37:12;12.00;53.70
43995;DHT22;51687;52.160;5.298;2023-03-16T06:39:39;12.10;53.70
43995;DHT22;51687;52.160;5.298;2023-03-16T06:42:06;12.20;53.50
43995;DHT22;51687;52.160;5.298;2023-03-16T06:44:32;12.30;53.00
43995;DHT22;51687;52.160;5.298;2023-03-16T06:46:59;12.30;52.60
43995;DHT22;51687;52.160;5.298;2023-03-16T06:49:26;12.40;52.50
43995;DHT22;51687;52.160;5.298;2023-03-16T06:51:53;12.30;52.60
43995;DHT22;51687;52.160;5.298;2023-03-16T06:54:21;12.30;52.80
43995;DHT22;51687;52.160;5.298;2023-03-16T06:56:51;12.30;52.90
43995;DHT22;51687;52.160;5.298;2023-03-16T06:59:19;12.20;53.10
43995;DHT22;51687;52.160;5.298;2023-03-16T07:01:46;12.20;53.50
43995;DHT22;51687;52.160;5.298;2023-03-16T07:04:13;12.10;53.50
43995;DHT22;51687;52.160;5.298;2023-03-16T07:06:40;12.10;53.40
43995;DHT22;51687;52.160;5.298;2023-03-16T07:09:07;12.10;53.30
43995;DHT22;51687;52.160;5.298;2023-03-16T07:11:34;12.10;53.50
43995;DHT22;51687;52.160;5.298;2023-03-16T07:14:01;12.10;54.00
43995;DHT22;51687;52.160;5.298;2023-03-16T07:16:28;12.20;53.50
43995;DHT22;51687;52.160;5.298;2023-03-16T07:18:55;12.10;53.50
43995;DHT22;51687;52.160;5.298;2023-03-16T07:21:21;12.10;53.50
43995;DHT22;51687;52.160;5.298;2023-03-16T07:23:49;12.20;53.70
43995;DHT22;51687;52.160;5.298;2023-03-16T07:26:17;12.10;53.50
43995;DHT22;51687;52.160;5.298;2023-03-16T07:28:44;12.10;53.80
43995;DHT22;51687;52.160;5.298;2023-03-16T07:31:11;12.10;54.00
43995;DHT22;51687;52.160;5.298;2023-03-16T07:33:42;12.10;54.10
43995;DHT22;51687;52.160;5.298;2023-03-16T07:36:10;12.10;54.10
43995;DHT22;51687;52.160;5.298;2023-03-16T07:38:37;12.00;54.10
43995;DHT22;51687;52.160;5.298;2023-03-16T07:41:04;12.00;54.10
43995;DHT22;51687;52.160;5.298;2023-03-16T07:43:31;12.00;55.00
43995;DHT22;51687;52.160;5.298;2023-03-16T07:45:58;12.00;54.20
43995;DHT22;51687;52.160;5.298;2023-03-16T07:48:25;11.90;54.50
43995;DHT22;51687;52.160;5.298;2023-03-16T07:50:52;11.90;54.70
43995;DHT22;51687;52.160;5.298;2023-03-16T07:53:21;11.90;54.70
43995;DHT22;51687;52.160;5.298;2023-03-16T07:55:48;11.90;54.90
43995;DHT22;51687;52.160;5.298;2023-03-16T07:58:14;11.90;55.00
43995;DHT22;51687;52.160;5.298;2023-03-16T08:00:41;12.00;54.90
43995;DHT22;51687;52.160;5.298;2023-03-16T08:03:08;12.00;54.90
43995;DHT22;51687;52.160;5.298;2023-03-16T08:05:35;12.00;54.70
43995;DHT22;51687;52.160;5.298;2023-03-16T08:08:02;12.10;54.70
43995;DHT22;51687;52.160;5.298;2023-03-16T08:10:29;12.20;55.00
43995;DHT22;51687;52.160;5.298;2023-03-16T08:12:57;12.20;55.50
43995;DHT22;51687;52.160;5.298;2023-03-16T08:15:23;12.30;55.30
43995;DHT22;51687;52.160;5.298;2023-03-16T08:17:50;12.40;55.50
43995;DHT22;51687;52.160;5.298;2023-03-16T08:20:18;12.50;56.00
43995;DHT22;51687;52.160;5.298;2023-03-16T08:22:45;12.60;55.50
43995;DHT22;51687;52.160;5.298;2023-03-16T08:25:13;12.60;54.50
43995;DHT22;51687;52.160;5.298;2023-03-16T08:27:41;12.60;54.20
43995;DHT22;51687;52.160;5.298;2023-03-16T08:30:11;12.70;55.00
43995;DHT22;51687;52.160;5.298;2023-03-16T08:32:39;12.70;53.90
43995;DHT22;51687;52.160;5.298;2023-03-16T08:35:08;12.70;53.60
43995;DHT22;51687;52.160;5.298;2023-03-16T08:37:35;12.70;53.50
43995;DHT22;51687;52.160;5.298;2023-03-16T08:40:02;12.70;53.00
43995;DHT22;51687;52.160;5.298;2023-03-16T08:42:31;12.70;53.30
43995;DHT22;51687;52.160;5.298;2023-03-16T08:44:58;12.70;53.10
43995;DHT22;51687;52.160;5.298;2023-03-16T08:47:26;12.70;52.80
43995;DHT22;51687;52.160;5.298;2023-03-16T08:49:53;12.70;52.70
43995;DHT22;51687;52.160;5.298;2023-03-16T08:52:19;12.70;52.60
43995;DHT22;51687;52.160;5.298;2023-03-16T08:54:48;12.70;51.80
43995;DHT22;51687;52.160;5.298;2023-03-16T08:57:28;12.70;52.40
43995;DHT22;51687;52.160;5.298;2023-03-16T08:59:55;12.70;52.20
43995;DHT22;51687;52.160;5.298;2023-03-16T09:02:22;12.70;51.80
43995;DHT22;51687;52.160;5.298;2023-03-16T09:04:50;12.70;51.90
43995;DHT22;51687;52.160;5.298;2023-03-16T09:07:18;12.70;52.20
43995;DHT22;51687;52.160;5.298;2023-03-16T09:09:47;12.70;51.70
43995;DHT22;51687;52.160;5.298;2023-03-16T09:12:13;12.70;51.50
43995;DHT22;51687;52.160;5.298;2023-03-16T09:14:40;12.80;51.90
43995;DHT22;51687;52.160;5.298;2023-03-16T09:17:07;12.80;53.30
43995;DHT22;51687;52.160;5.298;2023-03-16T09:19:35;12.80;51.70
43995;DHT22;51687;52.160;5.298;2023-03-16T09:22:21;12.80;51.80
43995;DHT22;51687;52.160;5.298;2023-03-16T09:24:48;12.90;50.90
43995;DHT22;51687;52.160;5.298;2023-03-16T09:27:15;12.90;51.20
43995;DHT22;51687;52.160;5.298;2023-03-16T09:29:42;12.90;51.40
43995;DHT22;51687;52.160;5.298;2023-03-16T09:32:14;13.00;51.30
43995;DHT22;51687;52.160;5.298;2023-03-16T09:34:40;13.00;50.30
43995;DHT22;51687;52.160;5.298;2023-03-16T09:37:07;12.90;50.90
43995;DHT22;51687;52.160;5.298;2023-03-16T09:39:35;12.90;50.90
43995;DHT22;51687;52.160;5.298;2023-03-16T09:42:13;13.00;51.00
43995;DHT22;51687;52.160;5.298;2023-03-16T09:44:51;13.00;51.20
43995;DHT22;51687;52.160;5.298;2023-03-16T09:47:26;13.10;51.10
43995;DHT22;51687;52.160;5.298;2023-03-16T09:49:56;13.10;50.50
43995;DHT22;51687;52.160;5.298;2023-03-16T09:52:56;13.10;50.10
43995;DHT22;51687;52.160;5.298;2023-03-16T09:55:31;13.20;49.90
43995;DHT22;51687;52.160;5.298;2023-03-16T09:58:00;13.20;50.50
43995;DHT22;51687;52.160;5.298;2023-03-16T10:00:35;13.20;51.30
43995;DHT22;51687;52.160;5.298;2023-03-16T10:05:57;13.20;49.80
43995;DHT22;51687;52.160;5.298;2023-03-16T10:08:29;13.20;50.30
43995;DHT22;51687;52.160;5.298;2023-03-16T10:16:52;13.30;49.90
43995;DHT22;51687;52.160;5.298;2023-03-16T10:21:59;13.30;49.00
43995;DHT22;51687;52.160;5.298;2023-03-16T10:25:05;13.40;49.10
43995;DHT22;51687;52.160;5.298;2023-03-16T10:27:37;13.40;48.30
43995;DHT22;51687;52.160;5.298;2023-03-16T10:30:28;13.30;48.00
43995;DHT22;51687;52.160;5.298;2023-03-16T10:33:12;13.20;50.40
43995;DHT22;51687;52.160;5.298;2023-03-16T10:38:46;13.30;48.80
43995;DHT22;51687;52.160;5.298;2023-03-16T10:43:44;13.30;49.50
43995;DHT22;51687;52.160;5.298;2023-03-16T10:46:11;13.40;49.80
43995;DHT22;51687;52.160;5.298;2023-03-16T10:48:40;13.40;49.50
43995;DHT22;51687;52.160;5.298;2023-03-16T11:03:50;13.50;49.20
43995;DHT22;51687;52.160;5.298;2023-03-16T11:06:21;13.70;47.90
43995;DHT22;51687;52.160;5.298;2023-03-16T11:11:26;13.70;47.10
43995;DHT22;51687;52.160;5.298;2023-03-16T11:14:00;13.80;47.80
43995;DHT22;51687;52.160;5.298;2023-03-16T11:16:41;13.80;48.10
43995;DHT22;51687;52.160;5.298;2023-03-16T11:19:17;13.80;47.40
43995;DHT22;51687;52.160;5.298;2023-03-16T11:27:33;13.90;48.00
43995;DHT22;51687;52.160;5.298;2023-03-16T11:30:21;13.90;47.40
43995;DHT22;51687;52.160;5.298;2023-03-16T11:32:50;13.90;47.60
43995;DHT22;51687;52.160;5.298;2023-03-16T11:35:22;14.00;47.70
43995;DHT22;51687;52.160;5.298;2023-03-16T11:38:12;14.00;46.50
43995;DHT22;51687;52.160;5.298;2023-03-16T11:46:16;14.10;47.30
43995;DHT22;51687;52.160;5.298;2023-03-16T12:00:33;14.30;47.10
43995;DHT22;51687;52.160;5.298;2023-03-16T12:08:39;14.30;45.90
43995;DHT22;51687;52.160;5.298;2023-03-16T12:11:43;14.40;46.30
43995;DHT22;51687;52.160;5.298;2023-03-16T12:14:13;14.50;46.30
43995;DHT22;51687;52.160;5.298;2023-03-16T12:16:51;14.50;45.10
43995;DHT22;51687;52.160;5.298;2023-03-16T12:24:44;14.50;45.20
43995;DHT22;51687;52.160;5.298;2023-03-16T12:27:22;14.60;44.90
43995;DHT22;51687;52.160;5.298;2023-03-16T12:33:11;14.50;44.50
43995;DHT22;51687;52.160;5.298;2023-03-16T12:35:54;14.50;45.20
43995;DHT22;51687;52.160;5.298;2023-03-16T12:38:39;14.50;44.20
43995;DHT22;51687;52.160;5.298;2023-03-16T12:43:53;14.50;42.90
43995;DHT22;51687;52.160;5.298;2023-03-16T12:46:30;14.40;42.70
43995;DHT22;51687;52.160;5.298;2023-03-16T12:49:04;14.50;43.20
43995;DHT22;51687;52.160;5.298;2023-03-16T12:51:37;14.50;42.90
43995;DHT22;51687;52.160;5.298;2023-03-16T12:54:05;14.60;42.30
43995;DHT22;51687;52.160;5.298;2023-03-16T12:56:44;14.60;43.50
43995;DHT22;51687;52.160;5.298;2023-03-16T12:59:17;14.60;44.00
43995;DHT22;51687;52.160;5.298;2023-03-16T13:01:49;14.70;43.70
43995;DHT22;51687;52.160;5.298;2023-03-16T13:07:01;14.80;42.90
43995;DHT22;51687;52.160;5.298;2023-03-16T13:09:42;14.90;41.30
43995;DHT22;51687;52.160;5.298;2023-03-16T13:12:28;15.00;42.10
43995;DHT22;51687;52.160;5.298;2023-03-16T13:30:59;15.20;43.70
43995;DHT22;51687;52.160;5.298;2023-03-16T13:33:29;15.50;39.00
43995;DHT22;51687;52.160;5.298;2023-03-16T13:35:58;15.50;38.80
43995;DHT22;51687;52.160;5.298;2023-03-16T13:38:27;15.50;38.10
43995;DHT22;51687;52.160;5.298;2023-03-16T13:41:03;15.50;39.50
43995;DHT22;51687;52.160;5.298;2023-03-16T13:43:31;15.50;39.50
43995;DHT22;51687;52.160;5.298;2023-03-16T13:46:00;15.60;40.90
43995;DHT22;51687;52.160;5.298;2023-03-16T15:23:32;15.60;39.80
43995;DHT22;51687;52.160;5.298;2023-03-16T15:25:59;17.00;34.40
43995;DHT22;51687;52.160;5.298;2023-03-16T15:28:28;17.00;34.50
43995;DHT22;51687;52.160;5.298;2023-03-16T15:30:57;17.00;34.60
43995;DHT22;51687;52.160;5.298;2023-03-16T15:33:26;17.00;35.00
43995;DHT22;51687;52.160;5.298;2023-03-16T15:35:55;17.10;35.30
43995;DHT22;51687;52.160;5.298;2023-03-16T15:38:31;17.10;34.00
43995;DHT22;51687;52.160;5.298;2023-03-16T15:40:59;17.20;34.10
43995;DHT22;51687;52.160;5.298;2023-03-16T15:43:28;17.10;34.20
43995;DHT22;51687;52.160;5.298;2023-03-16T15:45:57;17.10;34.40
43995;DHT22;51687;52.160;5.298;2023-03-16T15:48:25;17.10;34.20
43995;DHT22;51687;52.160;5.298;2023-03-16T15:53:30;17.10;34.10
43995;DHT22;51687;52.160;5.298;2023-03-16T15:56:10;17.10;34.50
43995;DHT22;51687;52.160;5.298;2023-03-16T15:58:42;17.20;34.90
43995;DHT22;51687;52.160;5.298;2023-03-16T16:01:22;17.20;36.10
43995;DHT22;51687;52.160;5.298;2023-03-16T16:03:52;17.30;35.70
43995;DHT22;51687;52.160;5.298;2023-03-16T20:23:26;17.30;36.00
43995;DHT22;51687;52.160;5.298;2023-03-16T20:25:55;16.90;38.60
43995;DHT22;51687;52.160;5.298;2023-03-16T20:28:23;16.80;38.50
43995;DHT22;51687;52.160;5.298;2023-03-16T20:30:50;16.80;40.00
43995;DHT22;51687;52.160;5.298;2023-03-16T20:33:21;16.80;38.80
43995;DHT22;51687;52.160;5.298;2023-03-16T20:35:50;16.70;38.90
43995;DHT22;51687;52.160;5.298;2023-03-16T20:38:19;16.70;39.60
43995;DHT22;51687;52.160;5.298;2023-03-16T20:40:49;16.70;39.60
43995;DHT22;51687;52.160;5.298;2023-03-16T20:43:24;16.70;39.50
43995;DHT22;51687;52.160;5.298;2023-03-16T20:45:54;16.70;39.40
43995;DHT22;51687;52.160;5.298;2023-03-16T20:48:21;16.60;39.30
43995;DHT22;51687;52.160;5.298;2023-03-16T20:50:54;16.70;39.30
43995;DHT22;51687;52.160;5.298;2023-03-16T20:53:23;16.60;39.70
43995;DHT22;51687;52.160;5.298;2023-03-16T20:55:50;16.60;39.70
43995;DHT22;51687;52.160;5.298;2023-03-16T20:58:24;16.60;39.30
43995;DHT22;51687;52.160;5.298;2023-03-16T21:00:52;16.60;40.00
43995;DHT22;51687;52.160;5.298;2023-03-16T21:03:25;16.60;39.90
43995;DHT22;51687;52.160;5.298;2023-03-16T21:05:54;16.60;39.70
43995;DHT22;51687;52.160;5.298;2023-03-16T21:08:25;16.60;39.80
43995;DHT22;51687;52.160;5.298;2023-03-16T21:10:52;16.50;39.70
43995;DHT22;51687;52.160;5.298;2023-03-16T21:13:32;16.50;39.60
43995;DHT22;51687;52.160;5.298;2023-03-16T21:16:01;16.50;39.40
43995;DHT22;51687;52.160;5.298;2023-03-16T21:18:29;16.50;39.70
43995;DHT22;51687;52.160;5.298;2023-03-16T21:20:56;16.40;40.30
43995;DHT22;51687;52.160;5.298;2023-03-16T21:23:24;16.50;40.20
43995;DHT22;51687;52.160;5.298;2023-03-16T21:28:18;16.50;40.00
43995;DHT22;51687;52.160;5.298;2023-03-16T21:30:48;16.40;40.30
43995;DHT22;51687;52.160;5.298;2023-03-16T21:33:41;16.40;39.90
43995;DHT22;51687;52.160;5.298;2023-03-16T21:36:17;16.40;40.20
43995;DHT22;51687;52.160;5.298;2023-03-16T21:38:47;16.40;39.70
43995;DHT22;51687;52.160;5.298;2023-03-16T21:41:14;16.40;40.70
43995;DHT22;51687;52.160;5.298;2023-03-16T21:43:42;16.50;40.40
43995;DHT22;51687;52.160;5.298;2023-03-16T21:46:15;16.40;40.00
43995;DHT22;51687;52.160;5.298;2023-03-16T21:48:45;16.40;39.80
43995;DHT22;51687;52.160;5.298;2023-03-16T21:51:14;16.40;39.80
43995;DHT22;51687;52.160;5.298;2023-03-16T21:53:42;16.40;39.80
43995;DHT22;51687;52.160;5.298;2023-03-16T21:56:14;16.40;40.60
43995;DHT22;51687;52.160;5.298;2023-03-16T21:58:42;16.30;40.20
43995;DHT22;51687;52.160;5.298;2023-03-16T22:03:46;16.30;39.90
43995;DHT22;51687;52.160;5.298;2023-03-16T22:06:17;16.30;39.90
43995;DHT22;51687;52.160;5.298;2023-03-16T22:08:44;16.30;40.10
43995;DHT22;51687;52.160;5.298;2023-03-16T22:11:19;16.30;40.30
43995;DHT22;51687;52.160;5.298;2023-03-16T22:13:46;16.30;40.30
43995;DHT22;51687;52.160;5.298;2023-03-16T22:16:20;16.30;40.50
43995;DHT22;51687;52.160;5.298;2023-03-16T22:18:50;16.20;40.20
43995;DHT22;51687;52.160;5.298;2023-03-16T22:21:37;16.20;40.60
43995;DHT22;51687;52.160;5.298;2023-03-16T22:24:23;16.20;40.70
43995;DHT22;51687;52.160;5.298;2023-03-16T22:26:52;16.20;40.70
43995;DHT22;51687;52.160;5.298;2023-03-16T22:29:30;16.20;41.20
43995;DHT22;51687;52.160;5.298;2023-03-16T22:32:05;16.20;40.70
43995;DHT22;51687;52.160;5.298;2023-03-16T22:34:38;16.20;41.10
43995;DHT22;51687;52.160;5.298;2023-03-16T22:37:09;16.20;40.70
43995;DHT22;51687;52.160;5.298;2023-03-16T22:39:39;16.20;40.50
43995;DHT22;51687;52.160;5.298;2023-03-16T22:42:22;16.10;40.90
43995;DHT22;51687;52.160;5.298;2023-03-16T22:44:53;16.10;41.00
43995;DHT22;51687;52.160;5.298;2023-03-16T22:47:22;16.10;40.80
43995;DHT22;51687;52.160;5.298;2023-03-16T22:49:49;16.10;40.90
43995;DHT22;51687;52.160;5.298;2023-03-16T22:52:16;16.10;43.10
43995;DHT22;51687;52.160;5.298;2023-03-16T22:54:45;16.10;40.60
43995;DHT22;51687;52.160;5.298;2023-03-16T22:57:13;16.10;40.50
43995;DHT22;51687;52.160;5.298;2023-03-16T22:59:43;16.10;40.60
43995;DHT22;51687;52.160;5.298;2023-03-16T23:02:14;16.10;40.70
43995;DHT22;51687;52.160;5.298;2023-03-16T23:04:42;16.10;40.50
43995;DHT22;51687;52.160;5.298;2023-03-16T23:07:11;16.00;40.50
43995;DHT22;51687;52.160;5.298;2023-03-16T23:09:38;16.00;40.60
43995;DHT22;51687;52.160;5.298;2023-03-16T23:12:13;15.90;40.60
43995;DHT22;51687;52.160;5.298;2023-03-16T23:14:41;15.90;40.70
43995;DHT22;51687;52.160;5.298;2023-03-16T23:17:19;15.90;41.00
43995;DHT22;51687;52.160;5.298;2023-03-16T23:19:46;15.90;40.80
43995;DHT22;51687;52.160;5.298;2023-03-16T23:22:14;16.00;41.50
43995;DHT22;51687;52.160;5.298;2023-03-16T23:24:40;16.00;40.90
43995;DHT22;51687;52.160;5.298;2023-03-16T23:27:17;16.00;41.40
43995;DHT22;51687;52.160;5.298;2023-03-16T23:29:44;16.00;41.00
43995;DHT22;51687;52.160;5.298;2023-03-16T23:32:12;16.00;40.80
43995;DHT22;51687;52.160;5.298;2023-03-16T23:34:39;15.90;41.00
43995;DHT22;51687;52.160;5.298;2023-03-16T23:37:06;16.00;41.90
43995;DHT22;51687;52.160;5.298;2023-03-16T23:39:34;15.90;41.70